createdAt,value
2023-05-20T00:02:06.618Z,40.85
2023-05-20T00:09:26.530Z,38.75
2023-05-20T00:16:45.026Z,36.35
2023-05-20T00:24:03.454Z,39.30
2023-05-20T00:31:23.546Z,34.67
2023-05-20T00:38:41.724Z,33.00
2023-05-20T00:45:59.954Z,38.50
2023-05-20T00:53:20.229Z,32.95
2023-05-20T01:00:39.012Z,36.35
2023-05-20T01:07:57.369Z,28.30
2023-05-20T01:15:17.784Z,31.58
2023-05-20T01:22:39.333Z,27.25
2023-05-20T01:29:57.608Z,30.98
2023-05-20T01:37:16.481Z,29.55
2023-05-20T01:44:37.363Z,25.70
2023-05-20T01:51:55.982Z,28.73
2023-05-20T01:59:14.344Z,30.25
2023-05-20T02:06:34.415Z,29.50
2023-05-20T02:13:52.915Z,28.88
2023-05-20T02:21:11.500Z,25.95
2023-05-20T02:28:31.380Z,28.13
2023-05-20T02:35:49.750Z,26.85
2023-05-20T02:43:08.043Z,28.88
2023-05-20T02:50:27.927Z,31.55
2023-05-20T02:57:46.310Z,28.45
2023-05-20T03:05:05.882Z,31.20
2023-05-20T03:12:26.537Z,31.92
2023-05-20T03:19:47.614Z,25.60
2023-05-20T03:27:07.133Z,29.92
2023-05-20T03:34:30.448Z,28.35
2023-05-20T03:41:48.848Z,27.50
2023-05-20T03:49:07.326Z,28.92
2023-05-20T03:56:27.720Z,24.02
2023-05-20T04:03:46.220Z,24.85
2023-05-20T04:11:04.864Z,22.50
2023-05-20T04:18:24.658Z,30.92
2023-05-20T04:25:44.865Z,21.70
2023-05-20T04:33:04.311Z,26.02
2023-05-20T04:40:25.369Z,31.55
2023-05-20T04:47:46.196Z,24.40
2023-05-20T04:55:06.515Z,24.20
2023-05-20T05:02:26.425Z,26.60
2023-05-20T05:09:45.923Z,25.40
2023-05-20T05:17:04.534Z,30.73
2023-05-20T05:24:24.509Z,29.63
2023-05-20T05:31:44.400Z,32.90
2023-05-20T05:39:02.858Z,31.20
2023-05-20T05:46:23.246Z,28.02
2023-05-20T05:53:42.008Z,32.72
2023-05-20T06:01:00.667Z,35.95
2023-05-20T06:08:22.497Z,33.50
2023-05-20T06:15:41.533Z,36.47
2023-05-20T06:23:00.156Z,32.92
2023-05-20T06:30:28.390Z,32.65
2023-05-20T06:37:46.785Z,36.05
2023-05-20T06:45:06.144Z,32.00
2023-05-20T06:52:45.901Z,27.33
2023-05-20T07:00:06.192Z,24.48
2023-05-20T07:07:29.196Z,26.98
2023-05-20T07:14:50.066Z,20.00
2023-05-20T07:22:08.539Z,21.55
2023-05-20T07:29:37.862Z,21.15
2023-05-20T07:36:58.281Z,19.40
2023-05-20T07:44:18.953Z,23.05
2023-05-20T07:51:40.466Z,16.38
2023-05-20T07:59:04.613Z,18.70
2023-05-20T08:06:29.979Z,16.58
2023-05-20T08:13:50.704Z,20.40
2023-05-20T08:21:11.442Z,17.77
2023-05-20T08:28:29.970Z,19.92
2023-05-20T08:35:49.880Z,15.48
2023-05-20T08:43:09.762Z,14.90
2023-05-20T08:50:28.915Z,18.15
2023-05-20T08:57:47.735Z,16.50
2023-05-20T09:05:09.456Z,13.93
2023-05-20T09:12:27.752Z,14.10
2023-05-20T09:19:46.159Z,14.43
2023-05-20T09:27:06.623Z,16.40
2023-05-20T09:34:25.333Z,13.48
2023-05-20T09:41:51.116Z,16.33
2023-05-20T09:49:11.057Z,15.43
2023-05-20T09:56:30.104Z,17.70
2023-05-20T10:03:48.416Z,15.80
2023-05-20T10:11:15.022Z,14.82
2023-05-20T10:18:43.607Z,15.07
2023-05-20T10:26:09.442Z,12.20
2023-05-20T10:33:28.671Z,17.35
2023-05-20T10:40:47.002Z,17.20
2023-05-20T10:48:07.137Z,15.63
2023-05-20T10:55:25.969Z,16.45
2023-05-20T11:02:44.820Z,16.58
2023-05-20T11:10:09.989Z,24.02
2023-05-20T11:17:30.047Z,13.43
2023-05-20T11:24:48.331Z,13.82
2023-05-20T11:32:09.729Z,15.27
2023-05-20T11:39:31.619Z,14.05
2023-05-20T11:46:50.255Z,18.42
2023-05-20T11:54:11.929Z,15.80
2023-05-20T12:01:33.985Z,17.83
2023-05-20T12:08:52.370Z,17.15
2023-05-20T12:16:12.219Z,15.77
2023-05-20T12:23:34.370Z,21.98
2023-05-20T12:30:53.180Z,15.43
2023-05-20T12:38:13.207Z,14.23
2023-05-20T12:45:39.485Z,18.00
2023-05-20T12:52:57.888Z,15.50
2023-05-20T13:00:19.489Z,18.20
2023-05-20T13:07:38.200Z,24.58
2023-05-20T13:14:57.095Z,21.88
2023-05-20T13:22:18.334Z,24.15
2023-05-20T13:29:36.620Z,25.52
2023-05-20T13:36:54.853Z,23.33
2023-05-20T13:44:14.610Z,23.25
2023-05-20T13:51:32.954Z,22.15
2023-05-20T13:58:51.710Z,28.50
2023-05-20T14:06:11.726Z,22.40
2023-05-20T14:13:30.031Z,19.80
2023-05-20T14:20:48.646Z,24.67
2023-05-20T14:28:08.736Z,22.20
2023-05-20T14:35:27.478Z,21.92
2023-05-20T14:42:45.997Z,22.13
2023-05-20T14:50:06.182Z,24.13
2023-05-20T14:57:24.542Z,22.02
2023-05-20T15:04:44.488Z,23.88
2023-05-20T15:12:04.607Z,23.35
2023-05-20T15:19:23.039Z,26.70
2023-05-20T15:26:42.461Z,25.50
2023-05-20T15:34:02.590Z,24.23
2023-05-20T15:41:21.810Z,25.17
2023-05-20T15:48:41.350Z,27.80
2023-05-20T15:56:01.626Z,28.60
2023-05-20T16:03:20.141Z,29.63
2023-05-20T16:10:38.558Z,32.05
2023-05-20T16:17:58.456Z,30.73
2023-05-20T16:25:16.814Z,24.65
2023-05-20T16:32:35.239Z,28.60
2023-05-20T16:39:55.470Z,26.73
2023-05-20T16:47:14.144Z,30.75
2023-05-20T16:54:32.824Z,29.05
2023-05-20T17:01:52.996Z,27.20
2023-05-20T17:09:11.281Z,28.70
2023-05-20T17:16:29.938Z,28.77
2023-05-20T17:23:50.124Z,36.97
2023-05-20T17:31:09.213Z,36.55
2023-05-20T17:38:27.636Z,35.63
2023-05-20T17:45:47.692Z,37.63
2023-05-20T17:53:06.232Z,32.90
2023-05-20T18:00:24.480Z,38.95
2023-05-20T18:07:44.496Z,39.95
2023-05-20T18:15:03.031Z,33.50
2023-05-20T18:22:27.594Z,36.25
2023-05-20T18:29:47.556Z,42.15
2023-05-20T18:37:06.333Z,43.78
2023-05-20T18:44:27.149Z,42.35
2023-05-20T18:51:47.636Z,46.35
2023-05-20T18:59:07.718Z,45.22
2023-05-20T19:06:29.257Z,42.35
2023-05-20T19:13:54.244Z,44.75
2023-05-20T19:21:15.264Z,47.92
2023-05-20T19:28:34.355Z,53.72
2023-05-20T19:35:57.897Z,40.42
2023-05-20T19:43:16.354Z,44.30
2023-05-20T19:50:35.462Z,46.65
2023-05-20T19:57:56.608Z,45.67
2023-05-20T20:05:15.595Z,49.58
2023-05-20T20:12:34.079Z,45.65
2023-05-20T20:19:58.182Z,44.75
2023-05-20T20:27:16.448Z,48.85
2023-05-20T20:34:38.784Z,46.40
2023-05-20T20:42:00.788Z,51.33
2023-05-20T20:49:19.435Z,47.10
2023-05-20T20:56:40.054Z,50.50
2023-05-20T21:04:01.360Z,46.50
2023-05-20T21:11:19.869Z,43.55
2023-05-20T21:18:38.196Z,43.50
2023-05-20T21:25:58.998Z,45.90
2023-05-20T21:33:21.427Z,45.55
2023-05-20T21:40:40.182Z,47.43
2023-05-20T21:48:00.500Z,44.85
2023-05-20T21:55:23.642Z,43.33
2023-05-20T22:10:02.527Z,46.88
2023-05-20T22:17:21.915Z,43.70
2023-05-20T22:24:40.404Z,45.63
2023-05-20T22:32:00.597Z,45.55
2023-05-20T22:39:19.209Z,43.88
2023-05-20T22:46:37.768Z,42.53
2023-05-20T22:53:58.535Z,40.40
2023-05-20T23:01:17.407Z,39.47
2023-05-20T23:08:35.838Z,34.80
2023-05-20T23:15:55.921Z,36.13
2023-05-20T23:23:14.397Z,37.25
2023-05-20T23:30:33.203Z,35.00
2023-05-20T23:37:53.426Z,36.72
2023-05-20T23:45:13.171Z,33.50
2023-05-20T23:52:31.664Z,33.20
2023-05-20T23:59:51.439Z,29.33
